createdAt,value
2018-04-10T00:02:18.880Z,29.70
2018-04-10T00:04:48.037Z,29.20
2018-04-10T00:07:17.209Z,30.77
2018-04-10T00:09:46.529Z,28.92
2018-04-10T00:12:15.755Z,32.47
2018-04-10T00:14:45.313Z,31.50
2018-04-10T00:17:14.439Z,31.17
2018-04-10T00:19:43.544Z,30.85
2018-04-10T00:22:12.917Z,31.95
2018-04-10T00:24:42.033Z,32.47
2018-04-10T00:27:11.414Z,31.05
2018-04-10T00:29:40.877Z,29.70
2018-04-10T00:32:10.008Z,30.85
2018-04-10T00:34:39.194Z,33.25
2018-04-10T00:37:08.869Z,31.85
2018-04-10T00:39:38.894Z,31.83
2018-04-10T00:42:08.038Z,31.23
2018-04-10T00:44:37.480Z,33.22
2018-04-10T00:47:06.645Z,31.85
2018-04-10T00:49:35.763Z,32.20
2018-04-10T00:52:04.912Z,32.83
2018-04-10T00:54:34.044Z,32.83
2018-04-10T00:57:03.181Z,31.92
2018-04-10T00:59:32.672Z,32.60
2018-04-10T01:02:01.908Z,32.45
2018-04-10T01:04:31.044Z,33.22
2018-04-10T01:07:00.181Z,33.90
2018-04-10T01:09:29.312Z,33.80
2018-04-10T01:11:58.431Z,34.00
2018-04-10T01:14:28.115Z,32.95
2018-04-10T01:16:57.220Z,32.67
2018-04-10T01:19:26.353Z,34.25
2018-04-10T01:21:55.581Z,34.65
2018-04-10T01:24:24.693Z,33.70
2018-04-10T01:26:53.814Z,36.13
2018-04-10T01:29:22.942Z,36.22
2018-04-10T01:31:52.063Z,35.15
2018-04-10T01:34:21.184Z,35.13
2018-04-10T01:36:50.640Z,36.35
2018-04-10T01:39:19.761Z,35.60
2018-04-10T01:41:48.955Z,36.15
2018-04-10T01:44:18.099Z,36.45
2018-04-10T01:46:47.243Z,35.47
2018-04-10T01:49:16.368Z,35.58
2018-04-10T01:51:45.813Z,38.05
2018-04-10T01:54:14.946Z,36.88
2018-04-10T01:56:44.069Z,40.60
2018-04-10T01:59:13.199Z,38.17
2018-04-10T02:01:42.319Z,38.70
2018-04-10T02:04:11.461Z,38.53
2018-04-10T02:06:40.584Z,38.20
2018-04-10T02:09:09.714Z,38.05
2018-04-10T02:11:38.820Z,38.50
2018-04-10T02:14:08.243Z,40.00
2018-04-10T02:16:37.365Z,41.20
2018-04-10T02:19:06.477Z,40.83
2018-04-10T02:21:35.621Z,42.80
2018-04-10T02:24:04.752Z,45.17
2018-04-10T02:26:33.886Z,43.33
2018-04-10T02:29:03.367Z,45.00
2018-04-10T02:31:32.490Z,48.25
2018-04-10T02:34:01.632Z,47.17
2018-04-10T02:36:31.361Z,47.15
2018-04-10T02:39:00.500Z,45.50
2018-04-10T02:41:29.617Z,47.15
2018-04-10T02:43:58.757Z,50.20
2018-04-10T02:46:27.881Z,50.40
2018-04-10T02:48:57.009Z,52.10
2018-04-10T02:51:26.562Z,56.53
2018-04-10T02:53:55.665Z,55.58
2018-04-10T02:56:24.795Z,57.92
2018-04-10T02:58:53.976Z,61.13
2018-04-10T03:01:23.093Z,57.25
2018-04-10T03:03:52.208Z,58.05
2018-04-10T03:06:21.641Z,54.90
2018-04-10T03:08:50.869Z,60.70
2018-04-10T03:11:20.004Z,60.67
2018-04-10T03:13:49.140Z,65.12
2018-04-10T03:16:18.366Z,67.22
2018-04-10T03:18:47.481Z,70.47
2018-04-10T03:21:17.036Z,64.25
2018-04-10T03:23:46.259Z,73.25
2018-04-10T03:26:15.457Z,77.87
2018-04-10T03:28:44.610Z,66.97
2018-04-10T03:31:13.730Z,69.82
2018-04-10T03:33:42.912Z,67.07
2018-04-10T03:36:12.418Z,62.30
2018-04-10T03:38:41.552Z,69.65
2018-04-10T03:41:10.692Z,78.28
2018-04-10T03:43:39.838Z,65.78
2018-04-10T03:46:08.964Z,68.12
2018-04-10T03:48:38.095Z,70.85
2018-04-10T03:51:07.231Z,73.60
2018-04-10T03:53:36.359Z,65.80
2018-04-10T03:56:05.476Z,66.57
2018-04-10T03:58:34.910Z,74.80
2018-04-10T04:01:04.034Z,71.28
2018-04-10T04:03:33.168Z,77.93
2018-04-10T04:06:02.410Z,65.25
2018-04-10T04:08:31.533Z,76.75
2018-04-10T04:11:00.661Z,71.87
2018-04-10T04:13:29.798Z,77.05
2018-04-10T04:15:58.920Z,74.07
2018-04-10T04:18:34.046Z,69.90
2018-04-10T04:21:09.167Z,68.50
2018-04-10T04:23:38.638Z,78.47
2018-04-10T04:26:07.771Z,70.32
2018-04-10T04:28:36.892Z,67.60
2018-04-10T04:31:06.160Z,70.35
2018-04-10T04:33:35.277Z,73.82
2018-04-10T04:36:04.405Z,67.93
2018-04-10T04:38:33.652Z,76.50
2018-04-10T04:41:02.798Z,69.32
2018-04-10T04:43:31.932Z,71.40
2018-04-10T04:46:01.432Z,73.25
2018-04-10T04:48:30.563Z,75.90
2018-04-10T04:50:59.686Z,72.62
2018-04-10T04:53:29.124Z,76.50
2018-04-10T04:55:58.350Z,78.32
2018-04-10T04:58:27.475Z,78.47
2018-04-10T05:00:56.908Z,73.75
2018-04-10T05:03:26.020Z,78.70
2018-04-10T05:05:55.232Z,80.78
2018-04-10T05:08:24.669Z,82.50
2018-04-10T05:10:53.785Z,82.68
2018-04-10T05:13:22.913Z,80.97
2018-04-10T05:15:52.409Z,83.00
2018-04-10T05:18:21.528Z,80.43
2018-04-10T05:20:50.723Z,81.32
2018-04-10T05:23:21.033Z,79.20
2018-04-10T05:25:50.250Z,78.97
2018-04-10T05:28:19.374Z,82.72
2018-04-10T05:30:48.848Z,77.45
2018-04-10T05:33:17.975Z,82.60
2018-04-10T05:35:47.109Z,82.82
2018-04-10T05:38:16.339Z,73.25
2018-04-10T05:40:45.468Z,85.43
2018-04-10T05:43:14.589Z,81.00
2018-04-10T05:45:43.741Z,81.65
2018-04-10T05:48:12.875Z,77.85
2018-04-10T05:50:42.033Z,74.97
2018-04-10T05:53:11.537Z,70.80
2018-04-10T05:55:40.641Z,58.53
2018-04-10T05:58:09.770Z,62.80
2018-04-10T06:00:39.389Z,54.75
2018-04-10T06:03:08.516Z,58.17
2018-04-10T06:05:37.633Z,54.08
2018-04-10T06:08:06.819Z,53.15
2018-04-10T06:10:35.951Z,51.60
2018-04-10T06:13:05.082Z,51.15
2018-04-10T06:15:34.587Z,48.50
2018-04-10T06:18:03.716Z,47.70
2018-04-10T06:20:32.845Z,43.72
2018-04-10T06:23:02.388Z,43.35
2018-04-10T06:25:31.525Z,40.80
2018-04-10T06:28:00.660Z,39.55
2018-04-10T06:30:30.297Z,34.65
2018-04-10T06:32:59.424Z,36.97
2018-04-10T06:35:28.550Z,36.17
2018-04-10T06:37:57.796Z,34.10
2018-04-10T06:40:26.940Z,35.55
2018-04-10T06:42:56.095Z,32.92
2018-04-10T06:45:25.262Z,34.83
2018-04-10T06:47:54.453Z,35.08
2018-04-10T06:50:23.681Z,35.97
2018-04-10T06:52:53.153Z,37.25
2018-04-10T06:55:22.381Z,33.97
2018-04-10T06:57:51.579Z,37.25
2018-04-10T07:00:20.713Z,39.15
2018-04-10T07:02:49.841Z,40.17
2018-04-10T07:05:19.004Z,38.08
2018-04-10T07:07:48.143Z,36.78
2018-04-10T07:10:17.275Z,37.78
2018-04-10T07:12:46.399Z,40.00
2018-04-10T07:15:15.588Z,35.75
2018-04-10T07:17:44.738Z,34.72
2018-04-10T07:20:13.887Z,31.37
2018-04-10T07:22:43.057Z,32.13
2018-04-10T07:25:12.194Z,29.25
2018-04-10T07:27:41.347Z,25.00
2018-04-10T07:30:10.479Z,28.37
2018-04-10T07:32:39.597Z,26.03
2018-04-10T07:35:08.720Z,25.47
2018-04-10T07:37:38.224Z,26.00
2018-04-10T07:40:07.353Z,24.90
2018-04-10T07:42:36.478Z,23.03
2018-04-10T07:45:05.879Z,25.17
2018-04-10T07:47:35.000Z,20.23
2018-04-10T07:50:04.934Z,17.47
2018-04-10T07:52:34.393Z,20.73
2018-04-10T07:55:03.515Z,20.40
2018-04-10T07:57:32.641Z,21.50
2018-04-10T08:00:02.419Z,23.07
2018-04-10T08:02:31.553Z,22.33
2018-04-10T08:05:00.682Z,21.80
2018-04-10T08:07:29.834Z,19.40
2018-04-10T08:09:58.964Z,22.17
2018-04-10T08:12:28.931Z,20.47
2018-04-10T08:14:58.074Z,20.97
2018-04-10T08:17:27.226Z,19.17
2018-04-10T08:19:56.361Z,19.40
2018-04-10T08:22:25.637Z,18.53
2018-04-10T08:24:54.776Z,19.60
2018-04-10T08:27:23.889Z,17.87
2018-04-10T08:29:53.024Z,16.73
2018-04-10T08:32:22.165Z,16.67
2018-04-10T08:34:51.320Z,17.43
2018-04-10T08:37:20.470Z,17.00
2018-04-10T08:39:49.594Z,16.87
2018-04-10T08:42:18.732Z,16.63
2018-04-10T08:44:48.131Z,15.23
2018-04-10T08:47:17.261Z,15.50
2018-04-10T08:49:46.381Z,15.00
2018-04-10T08:52:15.517Z,15.43
2018-04-10T08:54:44.638Z,15.07
2018-04-10T08:57:14.715Z,14.53
2018-04-10T08:59:44.165Z,14.50
2018-04-10T09:02:13.710Z,12.60
2018-04-10T09:04:42.798Z,16.30
2018-04-10T09:07:11.929Z,14.90
2018-04-10T09:09:41.061Z,15.27
2018-04-10T09:12:10.217Z,16.03
2018-04-10T09:14:39.650Z,16.37
2018-04-10T09:17:08.770Z,15.17
2018-04-10T09:19:37.981Z,15.90
2018-04-10T09:22:07.102Z,15.30
2018-04-10T09:24:36.238Z,16.83
2018-04-10T09:27:05.474Z,15.43
2018-04-10T09:29:34.633Z,16.03
2018-04-10T09:32:03.759Z,16.17
2018-04-10T09:34:32.891Z,16.43
2018-04-10T09:37:02.319Z,17.90
2018-04-10T09:39:31.439Z,18.90
2018-04-10T09:42:00.577Z,19.40
2018-04-10T09:44:30.031Z,18.17
2018-04-10T09:46:59.170Z,17.73
2018-04-10T09:49:28.297Z,18.47
2018-04-10T09:51:57.442Z,19.43
2018-04-10T09:54:26.558Z,17.97
2018-04-10T09:56:55.687Z,17.03
2018-04-10T09:59:25.765Z,20.30
2018-04-10T10:01:54.958Z,20.73
2018-04-10T10:04:24.076Z,17.90
2018-04-10T10:06:53.524Z,18.17
2018-04-10T10:09:22.755Z,18.83
2018-04-10T10:11:51.893Z,20.20
2018-04-10T10:14:21.033Z,17.37
2018-04-10T10:16:50.155Z,16.47
2018-04-10T10:19:19.290Z,18.60
2018-04-10T10:21:48.430Z,18.73
2018-04-10T10:24:17.574Z,18.07
2018-04-10T10:26:46.705Z,18.27
2018-04-10T10:29:15.857Z,17.80
2018-04-10T10:31:44.977Z,17.40
2018-04-10T10:34:14.215Z,17.23
2018-04-10T10:36:43.351Z,19.67
2018-04-10T10:39:12.504Z,20.23
2018-04-10T10:41:41.603Z,18.90
2018-04-10T10:44:10.802Z,19.40
2018-04-10T10:46:39.938Z,20.77
2018-04-10T10:49:09.060Z,18.10
2018-04-10T10:51:38.207Z,20.20
2018-04-10T10:54:08.215Z,20.87
2018-04-10T10:56:37.357Z,19.33
2018-04-10T10:59:06.773Z,16.83
2018-04-10T11:01:35.997Z,19.60
2018-04-10T11:04:05.125Z,18.23
2018-04-10T11:06:34.561Z,18.30
2018-04-10T11:09:03.693Z,16.90
2018-04-10T11:11:32.960Z,17.30
2018-04-10T11:14:02.101Z,15.73
2018-04-10T11:16:31.217Z,15.50
2018-04-10T11:19:00.345Z,16.03
2018-04-10T11:21:29.509Z,15.97
2018-04-10T11:23:58.633Z,16.60
2018-04-10T11:26:27.753Z,16.50
2018-04-10T11:28:56.900Z,16.43
2018-04-10T11:31:26.058Z,16.50
2018-04-10T11:33:55.181Z,16.63
2018-04-10T11:36:24.627Z,15.40
2018-04-10T11:38:53.757Z,17.70
2018-04-10T11:41:22.899Z,16.57
2018-04-10T11:43:52.072Z,17.00
2018-04-10T11:46:21.218Z,15.53
2018-04-10T11:48:50.366Z,16.63
2018-04-10T11:51:19.759Z,14.80
2018-04-10T11:53:48.899Z,16.50
2018-04-10T11:56:18.039Z,17.30
2018-04-10T11:58:47.516Z,16.00
2018-04-10T12:01:16.660Z,16.27
2018-04-10T12:03:45.818Z,15.77
2018-04-10T12:06:15.348Z,17.10
2018-04-10T12:08:44.494Z,15.23
2018-04-10T12:11:13.645Z,16.10
2018-04-10T12:13:43.050Z,15.07
2018-04-10T12:16:12.226Z,15.20
2018-04-10T12:18:41.349Z,15.20
2018-04-10T12:21:10.930Z,15.10
2018-04-10T12:23:40.057Z,16.80
2018-04-10T12:26:09.185Z,15.50
2018-04-10T12:28:38.698Z,15.47
2018-04-10T12:31:07.819Z,12.17
2018-04-10T12:33:36.953Z,12.63
2018-04-10T12:36:06.126Z,13.60
2018-04-10T12:38:35.270Z,13.10
2018-04-10T12:41:04.407Z,11.23
2018-04-10T12:43:33.547Z,10.13
2018-04-10T12:46:02.685Z,11.00
2018-04-10T12:48:31.826Z,10.77
2018-04-10T12:51:01.483Z,12.13
2018-04-10T12:53:30.602Z,12.47
2018-04-10T12:55:59.746Z,11.90
2018-04-10T12:58:28.885Z,11.03
2018-04-10T13:00:58.001Z,11.00
2018-04-10T13:03:27.121Z,12.00
2018-04-10T13:05:56.265Z,10.80
2018-04-10T13:08:25.413Z,9.33
2018-04-10T13:10:54.538Z,8.83
2018-04-10T13:13:23.692Z,9.20
2018-04-10T13:15:52.844Z,10.03
2018-04-10T13:18:21.978Z,10.30
2018-04-10T13:20:51.400Z,10.43
2018-04-10T13:23:20.527Z,10.37
2018-04-10T13:25:49.667Z,12.30
2018-04-10T13:28:18.818Z,10.50
2018-04-10T13:30:47.946Z,12.63
2018-04-10T13:33:17.069Z,10.90
2018-04-10T13:35:46.243Z,12.07
2018-04-10T13:38:15.413Z,11.93
2018-04-10T13:40:44.546Z,12.50
2018-04-10T13:43:13.715Z,12.77
2018-04-10T13:45:42.841Z,12.27
2018-04-10T13:48:11.986Z,13.90
2018-04-10T13:50:41.832Z,12.97
2018-04-10T13:53:10.962Z,13.10
2018-04-10T13:55:40.105Z,13.23
2018-04-10T13:58:09.601Z,14.07
2018-04-10T14:00:38.758Z,13.57
2018-04-10T14:03:07.888Z,14.20
2018-04-10T14:05:37.037Z,13.67
2018-04-10T14:08:06.170Z,13.67
2018-04-10T14:10:35.304Z,13.80
2018-04-10T14:13:04.782Z,14.07
2018-04-10T14:15:34.013Z,14.77
2018-04-10T14:18:03.137Z,13.97
2018-04-10T14:20:32.734Z,14.10
2018-04-10T14:23:01.954Z,12.30
2018-04-10T14:25:31.065Z,9.30
2018-04-10T14:28:00.584Z,9.53
2018-04-10T14:30:29.810Z,9.17
2018-04-10T14:32:58.939Z,8.80
2018-04-10T14:35:28.091Z,9.20
2018-04-10T14:37:57.304Z,9.50
2018-04-10T14:40:26.452Z,10.37
2018-04-10T14:42:55.581Z,9.57
2018-04-10T14:45:24.698Z,8.40
2018-04-10T14:47:53.817Z,10.53
2018-04-10T14:50:22.969Z,10.43
2018-04-10T14:52:52.094Z,10.40
2018-04-10T14:55:21.245Z,10.43
2018-04-10T14:57:50.657Z,9.97
2018-04-10T15:00:19.797Z,11.53
2018-04-10T15:02:48.941Z,11.77
2018-04-10T15:05:18.373Z,12.10
2018-04-10T15:07:47.557Z,11.50
2018-04-10T15:10:16.765Z,12.70
2018-04-10T15:12:46.235Z,12.30
2018-04-10T15:15:15.464Z,11.63
2018-04-10T15:17:44.589Z,12.30
2018-04-10T15:20:14.037Z,11.83
2018-04-10T15:22:43.153Z,10.20
2018-04-10T15:25:12.283Z,10.83
2018-04-10T15:27:41.420Z,10.90
2018-04-10T15:30:10.621Z,10.93
2018-04-10T15:32:39.745Z,12.30
2018-04-10T15:35:08.888Z,12.10
2018-04-10T15:37:38.038Z,11.63
2018-04-10T15:40:07.171Z,10.67
2018-04-10T15:42:36.323Z,11.93
2018-04-10T15:45:05.438Z,11.50
2018-04-10T15:47:34.632Z,13.03
2018-04-10T15:50:03.794Z,12.33
2018-04-10T15:52:32.932Z,12.57
2018-04-10T15:55:02.109Z,13.10
2018-04-10T15:57:32.128Z,12.30
2018-04-10T16:00:01.248Z,11.97
2018-04-10T16:02:30.397Z,12.13
2018-04-10T16:04:59.546Z,12.60
2018-04-10T16:07:28.691Z,12.00
2018-04-10T16:09:57.835Z,12.50
2018-04-10T16:12:26.977Z,12.70
2018-04-10T16:14:56.119Z,15.93
2018-04-10T16:17:25.344Z,18.43
2018-04-10T16:19:54.541Z,17.87
2018-04-10T16:22:23.669Z,18.10
2018-04-10T16:24:52.822Z,22.83
2018-04-10T16:27:22.293Z,24.20
2018-04-10T16:29:51.413Z,26.20
2018-04-10T16:32:20.586Z,25.83
2018-04-10T16:34:50.060Z,27.77
2018-04-10T16:37:19.251Z,29.30
2018-04-10T16:39:48.403Z,29.97
2018-04-10T16:42:17.900Z,30.63
2018-04-10T16:44:47.048Z,28.70
2018-04-10T16:47:16.281Z,30.60
2018-04-10T16:49:45.450Z,31.23
2018-04-10T16:52:14.621Z,31.20
2018-04-10T16:54:43.753Z,32.77
2018-04-10T16:57:12.905Z,31.50
2018-04-10T16:59:42.061Z,31.33
2018-04-10T17:02:11.205Z,33.00
2018-04-10T17:04:40.457Z,31.70
2018-04-10T17:07:09.593Z,32.23
2018-04-10T17:09:38.721Z,31.90
2018-04-10T17:12:07.862Z,34.23
2018-04-10T17:14:37.028Z,32.40
2018-04-10T17:17:06.161Z,32.30
2018-04-10T17:19:35.313Z,33.20
2018-04-10T17:22:04.432Z,32.80
2018-04-10T17:24:33.600Z,32.57
2018-04-10T17:27:03.122Z,32.50
2018-04-10T17:29:32.271Z,31.77
2018-04-10T17:32:01.400Z,32.83
2018-04-10T17:34:31.680Z,32.03
2018-04-10T17:37:00.801Z,31.37
2018-04-10T17:39:29.944Z,32.50
2018-04-10T17:41:59.098Z,31.57
2018-04-10T17:44:28.228Z,32.13
2018-04-10T17:46:57.377Z,34.27
2018-04-10T17:49:26.631Z,33.83
2018-04-10T17:51:55.824Z,33.50
2018-04-10T17:54:24.953Z,31.03
2018-04-10T17:56:54.108Z,33.07
2018-04-10T17:59:23.235Z,32.50
2018-04-10T18:01:52.374Z,33.60
2018-04-10T18:04:21.522Z,34.10
2018-04-10T18:06:50.669Z,31.67
2018-04-10T18:09:19.842Z,34.80
2018-04-10T18:11:49.009Z,34.47
2018-04-10T18:14:18.147Z,33.97
2018-04-10T18:16:47.281Z,33.87
2018-04-10T18:19:16.421Z,35.50
2018-04-10T18:21:45.547Z,33.90
2018-04-10T18:24:14.669Z,34.40
2018-04-10T18:26:43.813Z,33.40
2018-04-10T18:29:12.938Z,33.30
2018-04-10T18:31:42.076Z,34.70
2018-04-10T18:34:11.541Z,35.27
2018-04-10T18:36:40.710Z,33.63
2018-04-10T18:39:09.843Z,33.87
2018-04-10T18:41:38.994Z,33.50
2018-04-10T18:44:08.261Z,34.40
2018-04-10T18:46:37.412Z,34.03
2018-04-10T18:49:06.929Z,35.43
2018-04-10T18:51:36.057Z,35.50
2018-04-10T18:54:05.213Z,37.80
2018-04-10T18:56:34.353Z,34.73
2018-04-10T18:59:03.484Z,36.07
2018-04-10T19:01:32.736Z,34.70
2018-04-10T19:04:01.889Z,34.80
2018-04-10T19:06:31.129Z,34.33
2018-04-10T19:09:00.274Z,34.30
2018-04-10T19:11:29.526Z,37.37
2018-04-10T19:13:58.671Z,36.90
2018-04-10T19:16:27.813Z,35.37
2018-04-10T19:18:57.260Z,37.83
2018-04-10T19:21:26.400Z,38.37
2018-04-10T19:23:55.557Z,37.47
2018-04-10T19:26:24.706Z,39.60
2018-04-10T19:28:53.906Z,39.13
2018-04-10T19:31:23.046Z,40.30
2018-04-10T19:33:52.469Z,41.03
2018-04-10T19:36:21.661Z,43.07
2018-04-10T19:38:50.778Z,45.53
2018-04-10T19:41:19.917Z,43.00
2018-04-10T19:43:49.057Z,44.67
2018-04-10T19:46:18.236Z,46.43
2018-04-10T19:48:47.486Z,48.63
2018-04-10T19:51:16.633Z,51.27
2018-04-10T19:53:45.761Z,55.57
2018-04-10T19:56:15.283Z,52.80
2018-04-10T19:58:44.429Z,53.03
2018-04-10T20:01:13.577Z,53.97
2018-04-10T20:03:42.715Z,58.70
2018-04-10T20:06:11.886Z,56.97
2018-04-10T20:08:41.012Z,58.00
2018-04-10T20:11:10.209Z,57.90
2018-04-10T20:13:39.341Z,64.93
2018-04-10T20:16:08.481Z,65.50
2018-04-10T20:18:37.638Z,61.63
2018-04-10T20:21:06.768Z,65.20
2018-04-10T20:23:35.907Z,65.83
2018-04-10T20:26:05.065Z,64.50
2018-04-10T20:28:34.213Z,69.10
2018-04-10T20:31:03.353Z,68.07
2018-04-10T20:33:32.509Z,68.37
2018-04-10T20:36:01.726Z,68.97
2018-04-10T20:38:30.926Z,69.03
2018-04-10T20:41:00.123Z,69.60
2018-04-10T20:43:29.281Z,69.67
2018-04-10T20:45:58.444Z,69.80
2018-04-10T20:48:27.893Z,70.33
2018-04-10T20:50:57.113Z,70.40
2018-04-10T20:53:26.246Z,70.90
2018-04-10T20:55:55.433Z,72.53
2018-04-10T20:58:24.572Z,68.37
2018-04-10T21:00:53.805Z,66.97
2018-04-10T21:03:22.963Z,61.50
2018-04-10T21:05:52.097Z,65.20
2018-04-10T21:08:21.239Z,62.83
2018-04-10T21:10:50.800Z,61.70
2018-04-10T21:13:19.929Z,60.83
2018-04-10T21:15:49.192Z,59.00
2018-04-10T21:18:18.613Z,58.13
2018-04-10T21:20:47.744Z,59.20
2018-04-10T21:23:16.988Z,59.63
2018-04-10T21:25:46.171Z,55.53
2018-04-10T21:28:15.270Z,56.53
2018-04-10T21:30:44.429Z,57.45
2018-04-10T21:33:13.931Z,53.60
2018-04-10T21:35:43.152Z,55.10
2018-04-10T21:38:12.286Z,53.92
2018-04-10T21:40:41.753Z,51.60
2018-04-10T21:43:16.613Z,50.42
2018-04-10T21:45:45.750Z,51.05
2018-04-10T21:48:14.913Z,48.35
2018-04-10T21:50:44.053Z,48.92
2018-04-10T21:53:13.577Z,47.60
2018-04-10T21:55:42.762Z,46.65
2018-04-10T21:58:11.898Z,46.40
2018-04-10T22:00:41.337Z,42.80
2018-04-10T22:03:10.477Z,44.58
2018-04-10T22:05:39.611Z,45.70
2018-04-10T22:08:09.232Z,42.35
2018-04-10T22:10:38.379Z,46.25
2018-04-10T22:13:07.586Z,43.90
2018-04-10T22:15:37.060Z,43.47
2018-04-10T22:18:06.214Z,41.88
2018-04-10T22:20:35.341Z,41.75
2018-04-10T22:23:04.489Z,42.08
2018-04-10T22:25:33.628Z,43.92
2018-04-10T22:28:02.766Z,32.00
2018-04-10T22:30:32.196Z,46.03
2018-04-10T22:33:01.294Z,42.75
2018-04-10T22:35:30.437Z,0.20
2018-04-10T22:38:00.010Z,0.60
2018-04-10T22:40:29.141Z,0.20
2018-04-10T22:42:58.250Z,0.20
2018-04-10T22:45:27.813Z,0.20
2018-04-10T22:47:56.929Z,0.30
2018-04-10T22:50:26.041Z,0.20
2018-04-10T22:52:55.506Z,0.20
2018-04-10T22:55:24.636Z,0.30
2018-04-10T22:57:53.755Z,0.20
2018-04-10T23:00:28.941Z,0.20
2018-04-10T23:02:58.051Z,0.50
2018-04-10T23:05:27.177Z,0.20
2018-04-10T23:07:56.554Z,0.20
2018-04-10T23:10:25.684Z,0.20
2018-04-10T23:12:54.793Z,0.20
2018-04-10T23:15:24.253Z,0.20
2018-04-10T23:17:53.367Z,0.20
2018-04-10T23:20:23.391Z,0.20
2018-04-10T23:22:52.865Z,1.00
2018-04-10T23:25:21.977Z,0.30
2018-04-10T23:27:51.113Z,0.30
2018-04-10T23:30:20.881Z,0.20
2018-04-10T23:32:49.993Z,0.30
2018-04-10T23:35:19.119Z,0.20
2018-04-10T23:37:48.305Z,0.20
2018-04-10T23:40:17.434Z,0.20
2018-04-10T23:42:46.569Z,0.20
2018-04-10T23:45:16.137Z,0.20
2018-04-10T23:47:45.285Z,0.20
2018-04-10T23:50:14.399Z,0.20
2018-04-10T23:52:43.829Z,0.20
2018-04-10T23:55:12.963Z,0.20
2018-04-10T23:57:42.091Z,0.30
